createdAt,value
2019-01-09T00:00:10.353Z,-5.21
2019-01-09T00:02:39.032Z,-5.16
2019-01-09T00:05:07.771Z,-5.11
2019-01-09T00:07:36.398Z,-5.06
2019-01-09T00:10:05.777Z,-5.16
2019-01-09T00:12:34.410Z,-5.18
2019-01-09T00:15:04.424Z,-5.11
2019-01-09T00:17:33.397Z,-4.94
2019-01-09T00:20:02.046Z,-4.82
2019-01-09T00:22:30.682Z,-4.83
2019-01-09T00:24:59.352Z,-4.80
2019-01-09T00:27:28.003Z,-4.79
2019-01-09T00:29:56.625Z,-4.70
2019-01-09T00:32:25.301Z,-4.60
2019-01-09T00:34:53.958Z,-4.52
2019-01-09T00:37:22.606Z,-4.62
2019-01-09T00:39:51.284Z,-4.59
2019-01-09T00:42:20.019Z,-4.55
2019-01-09T00:44:48.641Z,-4.37
2019-01-09T00:47:17.516Z,-4.52
2019-01-09T00:49:46.155Z,-4.54
2019-01-09T00:52:14.791Z,-4.57
2019-01-09T00:54:43.504Z,-4.58
2019-01-09T00:57:12.141Z,-4.50
2019-01-09T00:59:40.789Z,-4.55
2019-01-09T01:02:31.548Z,-4.49
2019-01-09T01:05:22.471Z,-4.49
2019-01-09T01:08:19.505Z,-4.48
2019-01-09T01:11:15.396Z,-4.61
2019-01-09T01:13:56.209Z,-4.63
2019-01-09T01:16:46.053Z,-4.46
2019-01-09T01:19:26.504Z,-4.27
2019-01-09T01:21:58.381Z,-4.46
2019-01-09T01:24:38.278Z,-4.66
2019-01-09T01:27:25.099Z,-4.79
2019-01-09T01:30:31.833Z,-4.67
2019-01-09T01:33:12.304Z,-4.63
2019-01-09T01:35:43.838Z,-4.68
2019-01-09T01:38:34.424Z,-4.49
2019-01-09T01:41:40.923Z,-4.45
2019-01-09T01:44:12.669Z,-4.39
2019-01-09T01:47:02.244Z,-4.26
2019-01-09T01:49:36.977Z,-4.23
2019-01-09T01:52:25.350Z,-4.44
2019-01-09T01:55:08.945Z,-4.40
2019-01-09T01:58:01.779Z,-4.40
2019-01-09T02:00:36.135Z,-4.48
2019-01-09T02:03:32.160Z,-4.72
2019-01-09T02:06:30.634Z,-4.76
2019-01-09T02:09:35.575Z,-4.73
2019-01-09T02:12:25.065Z,-4.57
2019-01-09T02:15:21.186Z,-4.65
2019-01-09T02:17:55.558Z,-4.72
2019-01-09T02:20:36.355Z,-4.64
2019-01-09T02:23:25.585Z,-4.54
2019-01-09T02:25:57.250Z,-4.55
2019-01-09T02:28:45.255Z,-4.49
2019-01-09T02:31:35.094Z,-4.57
2019-01-09T02:34:03.722Z,-4.59
2019-01-09T02:36:32.274Z,-4.63
2019-01-09T02:39:01.045Z,-4.78
2019-01-09T02:41:29.683Z,-4.81
2019-01-09T02:43:58.232Z,-4.96
2019-01-09T02:46:26.836Z,-4.95
2019-01-09T02:48:55.400Z,-4.95
2019-01-09T02:51:24.034Z,-5.04
2019-01-09T02:53:52.724Z,-5.00
2019-01-09T02:56:21.288Z,-5.05
2019-01-09T02:58:49.855Z,-5.01
2019-01-09T03:01:18.525Z,-5.21
2019-01-09T03:03:47.085Z,-5.36
2019-01-09T03:06:22.912Z,-5.39
2019-01-09T03:08:46.358Z,-5.45
2019-01-09T03:11:18.105Z,-5.50
2019-01-09T03:13:46.875Z,-5.57
2019-01-09T03:16:15.427Z,-5.55
2019-01-09T03:18:44.065Z,-5.60
2019-01-09T03:21:12.703Z,-5.59
2019-01-09T03:23:41.398Z,-5.56
2019-01-09T03:26:10.033Z,-5.46
2019-01-09T03:28:38.671Z,-5.43
2019-01-09T03:31:07.352Z,-5.38
2019-01-09T03:33:35.913Z,-5.47
2019-01-09T03:36:04.545Z,-5.41
2019-01-09T03:38:33.213Z,-5.42
2019-01-09T03:41:01.784Z,-5.43
2019-01-09T03:43:30.415Z,-5.37
2019-01-09T03:45:59.090Z,-5.26
2019-01-09T03:48:27.708Z,-5.36
2019-01-09T03:50:56.200Z,-5.40
2019-01-09T03:53:25.112Z,-5.39
2019-01-09T03:55:53.672Z,-5.26
2019-01-09T03:58:22.300Z,-5.30
2019-01-09T04:00:50.969Z,-5.23
2019-01-09T04:03:19.524Z,-5.45
2019-01-09T04:05:48.090Z,-5.23
2019-01-09T04:08:17.005Z,-5.15
2019-01-09T04:10:45.629Z,-5.07
2019-01-09T04:13:14.274Z,-5.09
2019-01-09T04:15:43.021Z,-5.12
2019-01-09T04:18:11.593Z,-4.97
2019-01-09T04:20:40.211Z,-4.86
2019-01-09T04:23:08.871Z,-4.86
2019-01-09T04:25:37.377Z,-4.94
2019-01-09T04:28:06.001Z,-4.87
2019-01-09T04:30:34.641Z,-4.87
2019-01-09T04:33:03.513Z,-4.75
2019-01-09T04:35:32.091Z,-4.62
2019-01-09T04:38:00.736Z,-4.80
2019-01-09T04:40:29.267Z,-4.80
2019-01-09T04:42:57.908Z,-4.67
2019-01-09T04:45:26.547Z,-4.56
2019-01-09T04:47:55.357Z,-4.54
2019-01-09T04:50:23.848Z,-4.52
2019-01-09T04:52:52.416Z,-4.46
2019-01-09T04:55:21.087Z,-4.54
2019-01-09T04:57:49.649Z,-4.43
2019-01-09T05:00:18.217Z,-4.43
2019-01-09T05:02:47.048Z,-4.39
2019-01-09T05:05:15.681Z,-4.51
2019-01-09T05:07:44.251Z,-4.60
2019-01-09T05:10:12.844Z,-4.58
2019-01-09T05:12:41.407Z,-4.64
2019-01-09T05:15:10.029Z,-4.67
2019-01-09T05:17:38.635Z,-4.81
2019-01-09T05:20:07.286Z,-4.92
2019-01-09T05:22:35.916Z,-4.98
2019-01-09T05:25:04.698Z,-5.01
2019-01-09T05:27:33.256Z,-5.15
2019-01-09T05:30:01.892Z,-5.18
2019-01-09T05:32:30.573Z,-5.17
2019-01-09T05:34:59.062Z,-5.24
2019-01-09T05:37:27.629Z,-5.22
2019-01-09T05:39:56.304Z,-5.27
2019-01-09T05:42:24.925Z,-5.21
2019-01-09T05:44:53.488Z,-5.24
2019-01-09T05:47:22.172Z,-5.20
2019-01-09T05:49:50.813Z,-5.27
2019-01-09T05:52:19.445Z,-5.24
2019-01-09T05:54:48.068Z,-5.32
2019-01-09T05:57:16.714Z,-5.26
2019-01-09T05:59:45.291Z,-5.32
2019-01-09T06:02:13.974Z,-5.35
2019-01-09T06:04:42.614Z,-5.37
2019-01-09T06:07:18.296Z,-5.37
2019-01-09T06:09:41.591Z,-5.33
2019-01-09T06:12:10.164Z,-5.28
2019-01-09T06:14:38.781Z,-5.25
2019-01-09T06:17:07.437Z,-5.28
2019-01-09T06:19:36.046Z,-5.17
2019-01-09T06:22:04.623Z,-4.88
2019-01-09T06:24:33.296Z,-4.47
2019-01-09T06:27:01.859Z,-4.04
2019-01-09T06:29:30.503Z,-3.62
2019-01-09T06:31:59.306Z,-3.34
2019-01-09T06:34:27.863Z,-3.02
2019-01-09T06:36:56.457Z,-2.74
2019-01-09T06:39:25.127Z,-2.30
2019-01-09T06:41:53.819Z,-1.98
2019-01-09T06:44:22.845Z,-1.54
2019-01-09T06:46:51.815Z,-1.31
2019-01-09T06:49:20.429Z,-1.04
2019-01-09T06:51:48.998Z,-0.42
2019-01-09T06:54:17.807Z,-0.42
2019-01-09T06:56:46.413Z,0.15
2019-01-09T06:59:15.042Z,0.13
2019-01-09T07:01:43.717Z,0.18
2019-01-09T07:04:12.197Z,0.60
2019-01-09T07:06:40.765Z,0.84
2019-01-09T07:09:09.692Z,1.13
2019-01-09T07:11:38.312Z,1.44
2019-01-09T07:14:06.904Z,1.54
2019-01-09T07:16:35.576Z,1.34
2019-01-09T07:19:04.205Z,0.73
2019-01-09T07:21:32.834Z,0.76
2019-01-09T07:24:01.713Z,0.82
2019-01-09T07:26:30.363Z,1.03
2019-01-09T07:28:58.914Z,1.69
2019-01-09T07:31:27.758Z,1.98
2019-01-09T07:33:56.409Z,1.55
2019-01-09T07:36:24.980Z,1.40
2019-01-09T07:38:53.824Z,1.40
2019-01-09T07:41:22.391Z,1.47
2019-01-09T07:43:51.007Z,2.06
2019-01-09T07:46:19.690Z,2.06
2019-01-09T07:48:48.246Z,1.49
2019-01-09T07:51:16.877Z,1.12
2019-01-09T07:53:45.726Z,0.85
2019-01-09T07:56:14.383Z,0.58
2019-01-09T07:58:42.932Z,0.27
2019-01-09T08:01:11.609Z,0.06
2019-01-09T08:03:40.272Z,-0.31
2019-01-09T08:06:08.902Z,-0.44
2019-01-09T08:08:37.551Z,-0.46
2019-01-09T08:11:06.150Z,-0.71
2019-01-09T08:13:34.787Z,-1.39
2019-01-09T08:16:03.485Z,-1.70
2019-01-09T08:18:32.282Z,-1.94
2019-01-09T08:21:05.416Z,-2.04
2019-01-09T08:23:38.033Z,-2.20
2019-01-09T08:26:06.717Z,-2.21
2019-01-09T08:28:35.214Z,-2.28
2019-01-09T08:31:03.958Z,-2.10
2019-01-09T08:33:32.888Z,-2.51
2019-01-09T08:36:01.520Z,-2.40
2019-01-09T08:38:30.160Z,-2.23
2019-01-09T08:40:59.027Z,-2.09
2019-01-09T08:43:27.590Z,-2.29
2019-01-09T08:45:56.150Z,-2.13
2019-01-09T08:48:24.813Z,-2.15
2019-01-09T08:50:53.442Z,-2.17
2019-01-09T08:53:21.992Z,-2.02
2019-01-09T08:55:50.590Z,-2.02
2019-01-09T08:58:19.232Z,-1.87
2019-01-09T09:00:47.867Z,-1.83
2019-01-09T09:03:16.460Z,-1.57
2019-01-09T09:05:45.098Z,-1.57
2019-01-09T09:08:14.035Z,-1.53
2019-01-09T09:10:42.963Z,-1.71
2019-01-09T09:13:14.508Z,-1.65
2019-01-09T09:15:43.135Z,-1.65
2019-01-09T09:18:11.803Z,-1.36
2019-01-09T09:20:40.429Z,-1.50
2019-01-09T09:23:09.075Z,-1.75
2019-01-09T09:25:37.672Z,-1.75
2019-01-09T09:28:06.253Z,-1.76
2019-01-09T09:30:34.815Z,-1.55
2019-01-09T09:33:03.506Z,-1.76
2019-01-09T09:35:32.145Z,-1.74
2019-01-09T09:38:00.630Z,-1.74
2019-01-09T09:40:29.305Z,-1.70
2019-01-09T09:42:57.941Z,-1.68
2019-01-09T09:45:32.496Z,-1.43
2019-01-09T09:48:01.103Z,-1.22
2019-01-09T09:50:29.668Z,-1.46
2019-01-09T09:52:58.238Z,-1.21
2019-01-09T09:55:26.870Z,-1.21
2019-01-09T09:57:55.528Z,-1.15
2019-01-09T10:00:24.148Z,-1.03
2019-01-09T10:02:52.906Z,-0.87
2019-01-09T10:05:21.534Z,-0.88
2019-01-09T10:07:50.172Z,-0.53
2019-01-09T10:10:18.831Z,-0.39
2019-01-09T10:12:47.477Z,-0.26
2019-01-09T10:15:17.219Z,-0.28
2019-01-09T10:17:45.894Z,-0.30
2019-01-09T10:20:16.432Z,-0.49
2019-01-09T10:22:46.170Z,-0.32
2019-01-09T10:25:14.778Z,-0.39
2019-01-09T10:27:43.420Z,-0.46
2019-01-09T10:30:17.436Z,-0.56
2019-01-09T10:32:46.159Z,-0.56
2019-01-09T10:35:15.096Z,-0.34
2019-01-09T10:37:44.934Z,-0.34
2019-01-09T10:40:16.169Z,-0.37
2019-01-09T10:42:44.796Z,-0.30
2019-01-09T10:45:16.204Z,-0.33
2019-01-09T10:47:45.136Z,-0.42
2019-01-09T10:50:15.900Z,-0.57
2019-01-09T10:52:44.561Z,-0.61
2019-01-09T10:55:15.687Z,-0.55
2019-01-09T10:57:44.308Z,-0.69
2019-01-09T11:00:19.068Z,-0.63
2019-01-09T11:02:47.759Z,-0.46
2019-01-09T11:05:16.814Z,-0.49
2019-01-09T11:07:45.524Z,-0.58
2019-01-09T11:10:16.981Z,-0.68
2019-01-09T11:12:54.566Z,-0.73
2019-01-09T11:15:23.237Z,-0.72
2019-01-09T11:17:51.865Z,-0.72
2019-01-09T11:20:21.598Z,-0.76
2019-01-09T11:22:50.462Z,-0.71
2019-01-09T11:25:24.648Z,-0.55
2019-01-09T11:27:53.497Z,-0.37
2019-01-09T11:30:22.178Z,-0.30
2019-01-09T11:32:50.738Z,-0.25
2019-01-09T11:35:21.773Z,-0.26
2019-01-09T11:37:50.451Z,-0.25
2019-01-09T11:40:20.285Z,-0.11
2019-01-09T11:42:48.782Z,0.01
2019-01-09T11:45:19.761Z,0.18
2019-01-09T11:47:48.791Z,0.22
2019-01-09T11:50:18.016Z,0.21
2019-01-09T11:52:47.007Z,-0.10
2019-01-09T11:55:16.247Z,-0.19
2019-01-09T11:57:44.817Z,-0.34
2019-01-09T12:00:24.791Z,-0.53
2019-01-09T12:02:53.429Z,-0.58
2019-01-09T12:05:22.089Z,-0.96
2019-01-09T12:07:50.865Z,-1.01
2019-01-09T12:10:29.490Z,-0.96
2019-01-09T12:12:51.945Z,-1.11
2019-01-09T12:15:21.039Z,-1.27
2019-01-09T12:17:49.774Z,-1.51
2019-01-09T12:20:20.070Z,-1.43
2019-01-09T12:22:49.149Z,-1.59
2019-01-09T12:25:18.092Z,-1.88
2019-01-09T12:27:46.927Z,-1.88
2019-01-09T12:30:21.284Z,-1.86
2019-01-09T12:32:49.854Z,-1.89
2019-01-09T12:35:18.486Z,-2.00
2019-01-09T12:37:47.406Z,-1.96
2019-01-09T12:40:30.563Z,-1.99
2019-01-09T12:42:46.592Z,-1.99
2019-01-09T12:45:18.334Z,-2.10
2019-01-09T12:47:47.095Z,-2.07
2019-01-09T12:50:21.143Z,-1.97
2019-01-09T12:52:49.744Z,-2.00
2019-01-09T12:55:18.369Z,-1.88
2019-01-09T12:57:46.994Z,-1.88
2019-01-09T13:00:24.346Z,-1.83
2019-01-09T13:02:53.073Z,-1.87
2019-01-09T13:05:22.199Z,-1.74
2019-01-09T13:07:50.894Z,-1.74
2019-01-09T13:10:19.538Z,-1.81
2019-01-09T13:12:48.172Z,-1.63
2019-01-09T13:15:16.841Z,-1.63
2019-01-09T13:17:45.478Z,-1.62
2019-01-09T13:20:15.712Z,-1.70
2019-01-09T13:22:44.316Z,-1.70
2019-01-09T13:25:15.293Z,-1.72
2019-01-09T13:27:44.543Z,-1.65
2019-01-09T13:30:19.042Z,-1.84
2019-01-09T13:32:47.690Z,-1.93
2019-01-09T13:35:17.228Z,-1.93
2019-01-09T13:37:46.008Z,-1.84
2019-01-09T13:40:16.439Z,-1.77
2019-01-09T13:42:45.074Z,-1.73
2019-01-09T13:45:16.338Z,-1.91
2019-01-09T13:47:45.161Z,-1.88
2019-01-09T13:50:15.704Z,-1.91
2019-01-09T13:52:44.563Z,-2.18
2019-01-09T13:55:14.898Z,-2.16
2019-01-09T13:57:43.541Z,-2.22
2019-01-09T14:00:17.491Z,-2.21
2019-01-09T14:02:46.126Z,-2.38
2019-01-09T14:05:14.960Z,-2.42
2019-01-09T14:07:43.637Z,-2.40
2019-01-09T14:10:14.757Z,-2.40
2019-01-09T14:12:43.396Z,-2.47
2019-01-09T14:15:15.376Z,-2.42
2019-01-09T14:17:43.945Z,-2.47
2019-01-09T14:20:13.383Z,-2.48
2019-01-09T14:22:42.092Z,-2.56
2019-01-09T14:25:12.640Z,-2.58
2019-01-09T14:27:41.274Z,-2.68
2019-01-09T14:30:18.653Z,-2.65
2019-01-09T14:32:47.277Z,-2.59
2019-01-09T14:35:17.520Z,-2.61
2019-01-09T14:37:46.226Z,-2.61
2019-01-09T14:40:19.704Z,-2.59
2019-01-09T14:42:48.268Z,-2.54
2019-01-09T14:45:17.646Z,-2.61
2019-01-09T14:47:46.283Z,-2.63
2019-01-09T14:50:17.753Z,-2.64
2019-01-09T14:52:46.444Z,-2.64
2019-01-09T14:55:15.471Z,-2.60
2019-01-09T14:57:50.931Z,-2.67
2019-01-09T15:00:27.401Z,-2.58
2019-01-09T15:02:55.965Z,-2.61
2019-01-09T15:05:24.691Z,-2.72
2019-01-09T15:07:53.362Z,-2.74
2019-01-09T15:10:27.091Z,-2.77
2019-01-09T15:12:55.915Z,-2.74
2019-01-09T15:15:24.592Z,-2.86
2019-01-09T15:17:53.225Z,-2.82
2019-01-09T15:20:21.860Z,-2.89
2019-01-09T15:22:50.537Z,-3.05
2019-01-09T15:25:19.480Z,-2.98
2019-01-09T15:27:48.135Z,-3.00
2019-01-09T15:30:25.394Z,-2.96
2019-01-09T15:32:54.039Z,-3.03
2019-01-09T15:35:22.668Z,-3.00
2019-01-09T15:37:51.564Z,-2.98
2019-01-09T15:40:25.953Z,-2.97
2019-01-09T15:42:54.583Z,-2.92
2019-01-09T15:45:23.266Z,-2.86
2019-01-09T15:47:51.907Z,-2.91
2019-01-09T15:50:22.650Z,-2.81
2019-01-09T15:52:51.475Z,-2.83
2019-01-09T15:55:20.295Z,-2.80
2019-01-09T15:57:51.026Z,-2.89
2019-01-09T16:00:22.610Z,-2.84
2019-01-09T16:02:51.249Z,-2.98
2019-01-09T16:05:19.882Z,-3.23
2019-01-09T16:07:48.752Z,-3.20
2019-01-09T16:10:19.976Z,-3.14
2019-01-09T16:12:48.609Z,-3.24
2019-01-09T16:15:18.389Z,-3.17
2019-01-09T16:17:47.020Z,-3.22
2019-01-09T16:20:20.631Z,-3.20
2019-01-09T16:22:49.524Z,-3.24
2019-01-09T16:25:18.246Z,-3.26
2019-01-09T16:27:46.882Z,-3.32
2019-01-09T16:30:18.935Z,-3.23
2019-01-09T16:32:47.561Z,-3.28
2019-01-09T16:35:16.201Z,-3.23
2019-01-09T16:37:44.989Z,-3.21
2019-01-09T16:40:23.044Z,-3.16
2019-01-09T16:42:45.553Z,-3.16
2019-01-09T16:45:15.338Z,-3.17
2019-01-09T16:47:43.984Z,-3.16
2019-01-09T16:50:15.794Z,-3.05
2019-01-09T16:52:44.696Z,-3.15
2019-01-09T16:55:13.416Z,-3.21
2019-01-09T16:57:42.526Z,-3.19
2019-01-09T17:00:16.803Z,-3.16
2019-01-09T17:02:45.428Z,-3.17
2019-01-09T17:05:14.335Z,-3.11
2019-01-09T17:07:43.336Z,-3.17
2019-01-09T17:10:14.911Z,-3.14
2019-01-09T17:12:43.561Z,-3.19
2019-01-09T17:15:15.133Z,-3.11
2019-01-09T17:17:43.764Z,-3.11
2019-01-09T17:20:18.102Z,-3.11
2019-01-09T17:22:47.696Z,-3.08
2019-01-09T17:25:16.220Z,-3.05
2019-01-09T17:27:44.836Z,-2.99
2019-01-09T17:30:19.335Z,-2.99
2019-01-09T17:32:47.977Z,-3.08
2019-01-09T17:35:16.595Z,-3.06
2019-01-09T17:37:45.257Z,-3.04
2019-01-09T17:40:18.592Z,-3.09
2019-01-09T17:42:47.729Z,-3.05
2019-01-09T17:45:16.557Z,-3.05
2019-01-09T17:47:45.196Z,-3.04
2019-01-09T17:50:22.588Z,-3.04
2019-01-09T17:52:51.213Z,-3.06
2019-01-09T17:55:19.834Z,-3.06
2019-01-09T17:57:55.534Z,-3.09
2019-01-09T18:00:35.619Z,-3.13
2019-01-09T18:03:04.481Z,-3.14
2019-01-09T18:05:33.122Z,-3.05
2019-01-09T18:08:10.147Z,-3.15
2019-01-09T18:10:32.132Z,-3.14
2019-01-09T18:13:00.756Z,-3.13
2019-01-09T18:15:29.376Z,-3.19
2019-01-09T18:17:58.154Z,-3.16
2019-01-09T18:20:26.784Z,-3.21
2019-01-09T18:22:55.410Z,-3.24
2019-01-09T18:25:26.375Z,-3.16
2019-01-09T18:27:55.004Z,-3.10
2019-01-09T18:30:27.299Z,-3.16
2019-01-09T18:32:58.849Z,-3.13
2019-01-09T18:35:36.031Z,-3.23
2019-01-09T18:38:15.856Z,-3.17
2019-01-09T18:40:48.957Z,-3.25
2019-01-09T18:43:29.527Z,-3.37
2019-01-09T18:46:01.075Z,-3.50
2019-01-09T18:48:41.282Z,-3.53
2019-01-09T18:51:29.568Z,-3.54
2019-01-09T18:53:58.101Z,-3.54
2019-01-09T18:56:26.746Z,-3.55
2019-01-09T18:58:55.453Z,-3.62
2019-01-09T19:01:24.502Z,-3.58
2019-01-09T19:03:59.051Z,-3.53
2019-01-09T19:06:35.151Z,-3.59
2019-01-09T19:08:58.199Z,-3.57
2019-01-09T19:11:26.756Z,-3.58
2019-01-09T19:13:55.396Z,-3.63
2019-01-09T19:16:23.991Z,-3.71
2019-01-09T19:18:54.232Z,-3.70
2019-01-09T19:21:23.251Z,-3.79
2019-01-09T19:23:51.931Z,-3.73
2019-01-09T19:26:20.567Z,-3.81
2019-01-09T19:28:49.217Z,-3.68
2019-01-09T19:31:18.120Z,-3.74
2019-01-09T19:33:46.760Z,-3.77
2019-01-09T19:36:15.404Z,-3.72
2019-01-09T19:38:44.009Z,-3.68
2019-01-09T19:41:17.208Z,-3.74
2019-01-09T19:43:43.011Z,-3.66
2019-01-09T19:46:11.679Z,-3.68
2019-01-09T19:48:40.320Z,-3.66
2019-01-09T19:51:17.330Z,-3.62
2019-01-09T19:53:40.348Z,-3.57
2019-01-09T19:56:09.034Z,-3.62
2019-01-09T19:58:38.545Z,-3.60
2019-01-09T20:01:07.229Z,-3.61
2019-01-09T20:03:35.858Z,-3.72
2019-01-09T20:06:05.199Z,-3.66
2019-01-09T20:08:33.979Z,-3.74
2019-01-09T20:11:02.768Z,-3.58
2019-01-09T20:13:31.494Z,-3.64
2019-01-09T20:16:00.246Z,-3.64
2019-01-09T20:18:29.009Z,-3.62
2019-01-09T20:20:57.636Z,-3.56
2019-01-09T20:23:26.423Z,-3.59
2019-01-09T20:25:55.076Z,-3.50
2019-01-09T20:28:23.758Z,-3.56
2019-01-09T20:30:52.446Z,-3.55
2019-01-09T20:33:21.196Z,-3.54
2019-01-09T20:35:49.762Z,-3.49
2019-01-09T20:38:18.619Z,-3.46
2019-01-09T20:40:47.264Z,-3.49
2019-01-09T20:43:15.950Z,-3.52
2019-01-09T20:45:44.584Z,-3.56
2019-01-09T20:48:13.215Z,-3.63
2019-01-09T20:50:41.861Z,-3.57
2019-01-09T20:53:10.681Z,-3.60
2019-01-09T20:55:39.190Z,-3.69
2019-01-09T20:58:08.046Z,-3.66
2019-01-09T21:00:36.691Z,-3.55
2019-01-09T21:03:05.734Z,-3.60
2019-01-09T21:05:39.466Z,-3.52
2019-01-09T21:08:08.591Z,-3.62
2019-01-09T21:10:37.196Z,-3.45
2019-01-09T21:13:06.240Z,-3.39
2019-01-09T21:15:35.447Z,-3.47
2019-01-09T21:18:04.179Z,-3.41
2019-01-09T21:20:32.829Z,-3.34
2019-01-09T21:23:01.508Z,-3.48
2019-01-09T21:25:30.151Z,-3.35
2019-01-09T21:27:58.787Z,-3.29
2019-01-09T21:30:27.460Z,-3.29
2019-01-09T21:32:56.628Z,-3.30
2019-01-09T21:35:25.252Z,-3.30
2019-01-09T21:37:54.128Z,-3.25
2019-01-09T21:40:27.974Z,-3.20
2019-01-09T21:42:56.618Z,-3.11
2019-01-09T21:45:25.626Z,-3.20
2019-01-09T21:47:54.552Z,-3.12
2019-01-09T21:50:25.369Z,-3.10
2019-01-09T21:52:54.148Z,-3.02
2019-01-09T21:55:23.088Z,-2.94
2019-01-09T21:57:51.673Z,-3.05
2019-01-09T22:00:25.529Z,-3.03
2019-01-09T22:02:54.267Z,-3.06
2019-01-09T22:05:23.887Z,-3.00
2019-01-09T22:07:52.859Z,-3.04
2019-01-09T22:10:24.245Z,-3.08
2019-01-09T22:12:53.075Z,-3.14
2019-01-09T22:15:28.184Z,-3.09
2019-01-09T22:17:56.935Z,-3.05
2019-01-09T22:20:25.605Z,-3.11
2019-01-09T22:22:54.283Z,-3.17
2019-01-09T22:25:23.181Z,-3.23
2019-01-09T22:27:51.755Z,-3.25
2019-01-09T22:30:25.674Z,-3.25
2019-01-09T22:32:54.421Z,-3.17
2019-01-09T22:35:23.264Z,-3.22
2019-01-09T22:37:51.943Z,-3.25
2019-01-09T22:40:21.768Z,-3.14
2019-01-09T22:42:50.512Z,-3.11
2019-01-09T22:45:19.597Z,-3.27
2019-01-09T22:47:48.242Z,-3.35
2019-01-09T22:50:19.285Z,-3.46
2019-01-09T22:52:47.962Z,-3.55
2019-01-09T22:55:16.600Z,-3.40
2019-01-09T22:57:45.254Z,-3.29
2019-01-09T23:00:19.404Z,-3.39
2019-01-09T23:02:48.051Z,-3.29
2019-01-09T23:05:16.787Z,-3.31
2019-01-09T23:07:46.712Z,-3.32
2019-01-09T23:10:15.578Z,-3.28
2019-01-09T23:12:44.218Z,-3.29
2019-01-09T23:15:12.996Z,-3.27
2019-01-09T23:17:41.658Z,-3.43
2019-01-09T23:20:13.110Z,-3.43
2019-01-09T23:22:41.794Z,-3.44
2019-01-09T23:25:10.531Z,-3.45
2019-01-09T23:27:39.089Z,-3.50
2019-01-09T23:30:12.006Z,-3.61
2019-01-09T23:32:40.748Z,-3.44
2019-01-09T23:35:11.602Z,-3.44
2019-01-09T23:37:40.503Z,-3.58
2019-01-09T23:40:11.946Z,-3.61
2019-01-09T23:42:40.674Z,-3.51
2019-01-09T23:45:11.338Z,-3.56
2019-01-09T23:47:39.974Z,-3.58
2019-01-09T23:50:10.519Z,-3.44
2019-01-09T23:52:39.184Z,-3.47
2019-01-09T23:55:10.355Z,-3.57
2019-01-09T23:57:38.855Z,-3.52
